Winchester, KS (66097)

10:37 PM CDT on July 28, 2016 (GMT -0500)
8 Mile Farm Lane | | Change Station

Elev 1112 ft 39.37 °N, 95.04 °W | Updated 13 minutes ago

Partly Cloudy
Partly Cloudy
75.0 °F
Feels Like 77 °F
N
4.2
Wind Variable Wind from NNE

Today
High -- | Low -- °F
--% Chance of Precip.
Yesterday
High -- | Low -- °F
Precip. -- in
Pressure 29.96 in
Visibility 10.0 miles
Clouds Few 12000 ft
Heat Index 77 °F
Dew Point 64 °F
Humidity 69%
Rainfall 0.00 in
Snow Depth Not available.
6:18 AM 8:36 PM
Waning Crescent, 26% visible
METAR KLWC 290252Z AUTO 32004KT 10SM FEW120 25/21 A2999 RMK AO2 LTG DSNT SW AND W SLP145 T02500206 53021
Pressure 29.96 in
Visibility 10.0 miles
Clouds Few 12000 ft
Heat Index 77 °F
Dew Point 64 °F
Humidity 69%
Rainfall 0.00 in
Snow Depth Not available.
6:18 AM 8:36 PM
Waning Crescent, 26% visible
METAR KLWC 290252Z AUTO 32004KT 10SM FEW120 25/21 A2999 RMK AO2 LTG DSNT SW AND W SLP145 T02500206 53021

10-Day Weather Forecast

Almanac

Astronomy

Jul. 28, 2016 Rise Set
Actual Time
Civil Twilight
Nautical Twilight
Astronomical Twilight
Moon
Length of Visible Light
Length of Day
Tomorrow will be .
, % of the Moon is Illuminated

Today's Extremes

State Highs State Lows

Community

WunderPhotos

Upload Photos

1,928,286 photos uploaded!

WunderBlog® & News

Nearby

Air Quality

  Air Quality AQ Index Pollutant
Not available.

Snow Depth

Station Depth Elevation

Earthquake Activity

City Distance Mag. Time & Date
Minimum magnitude displayed is 2.5.

Coastal Water Temperatures

Place Temperature

Stations

Nearby Weather Stations

Station Location Temp. Windchill Dew Point Humidity Wind Precip. Elev Updated Type
                   

Watches & Warnings

There are currently no watches in effect.